createdAt,value
2019-06-10T00:02:18.190Z,17.32
2019-06-10T00:08:22.716Z,17.20
2019-06-10T00:14:27.342Z,17.23
2019-06-10T00:20:31.903Z,17.30
2019-06-10T00:26:36.535Z,17.16
2019-06-10T00:32:41.297Z,17.20
2019-06-10T00:38:46.035Z,16.82
2019-06-10T00:44:50.931Z,16.81
2019-06-10T00:50:55.655Z,16.75
2019-06-10T00:57:01.154Z,16.58
2019-06-10T01:03:08.050Z,16.15
2019-06-10T01:09:14.819Z,16.12
2019-06-10T01:15:21.724Z,15.94
2019-06-10T01:21:25.664Z,15.74
2019-06-10T01:27:31.509Z,15.95
2019-06-10T01:33:36.161Z,15.80
2019-06-10T01:39:43.411Z,15.56
2019-06-10T01:45:48.200Z,15.32
2019-06-10T01:51:52.826Z,15.49
2019-06-10T01:57:57.389Z,15.40
2019-06-10T02:04:01.973Z,15.51
2019-06-10T02:10:13.831Z,15.52
2019-06-10T02:16:19.030Z,15.51
2019-06-10T02:22:24.553Z,15.58
2019-06-10T02:28:31.882Z,15.59
2019-06-10T02:34:42.834Z,15.75
2019-06-10T02:40:45.584Z,15.74
2019-06-10T02:46:50.171Z,15.93
2019-06-10T02:52:54.718Z,15.75
2019-06-10T02:58:59.281Z,15.61
2019-06-10T03:05:04.793Z,15.61
2019-06-10T03:11:09.536Z,15.51
2019-06-10T03:17:19.824Z,15.46
2019-06-10T03:23:26.411Z,15.79
2019-06-10T03:29:32.769Z,15.44
2019-06-10T03:35:37.106Z,15.54
2019-06-10T03:41:42.381Z,15.62
2019-06-10T03:47:47.100Z,15.73
2019-06-10T03:53:53.143Z,15.71
2019-06-10T03:59:57.867Z,16.03
2019-06-10T04:06:05.659Z,15.88
2019-06-10T04:12:12.572Z,16.09
2019-06-10T04:18:17.813Z,16.20
2019-06-10T04:24:25.429Z,16.45
2019-06-10T04:30:32.532Z,16.39
2019-06-10T04:36:37.226Z,16.49
2019-06-10T04:42:44.719Z,16.57
2019-06-10T04:48:49.275Z,16.81
2019-06-10T04:54:53.925Z,16.84
2019-06-10T05:00:58.533Z,16.88
2019-06-10T05:07:03.147Z,16.93
2019-06-10T05:13:08.171Z,17.27
2019-06-10T05:19:13.072Z,17.84
2019-06-10T05:25:17.721Z,18.21
2019-06-10T05:31:25.197Z,18.39
2019-06-10T05:37:29.328Z,18.67
2019-06-10T05:43:34.638Z,18.85
2019-06-10T05:49:39.314Z,19.17
2019-06-10T05:55:43.884Z,19.18
2019-06-10T06:01:53.662Z,19.56
2019-06-10T06:08:05.647Z,19.49
2019-06-10T06:14:07.418Z,19.61
2019-06-10T06:20:13.326Z,20.15
2019-06-10T06:26:18.119Z,20.49
2019-06-10T06:32:23.586Z,20.98
2019-06-10T06:38:28.810Z,21.49
2019-06-10T06:44:38.154Z,21.82
2019-06-10T06:51:00.306Z,22.17
2019-06-10T06:56:49.427Z,23.17
2019-06-10T07:02:54.053Z,23.64
2019-06-10T07:09:04.596Z,23.98
2019-06-10T07:15:09.146Z,24.27
2019-06-10T07:21:16.594Z,24.29
2019-06-10T07:27:22.579Z,24.29
2019-06-10T07:33:27.343Z,24.33
2019-06-10T07:39:34.663Z,24.40
2019-06-10T07:45:39.481Z,24.08
2019-06-10T07:51:46.291Z,23.99
2019-06-10T07:57:52.916Z,23.79
2019-06-10T08:03:57.118Z,24.28
2019-06-10T08:10:02.905Z,24.87
2019-06-10T08:16:07.719Z,24.91
2019-06-10T08:22:14.353Z,24.94
2019-06-10T08:28:22.630Z,25.37
2019-06-10T08:34:25.982Z,25.46
2019-06-10T08:40:32.571Z,25.52
2019-06-10T08:46:37.178Z,25.83
2019-06-10T08:53:01.460Z,26.45
2019-06-10T08:58:49.631Z,26.99
2019-06-10T09:04:54.315Z,27.39
2019-06-10T09:10:58.896Z,27.71
2019-06-10T09:17:05.807Z,27.42
2019-06-10T09:23:21.506Z,26.78
2019-06-10T09:29:16.782Z,26.88
2019-06-10T09:35:24.097Z,27.37
2019-06-10T09:41:40.942Z,27.94
2019-06-10T09:47:42.594Z,27.51
2019-06-10T09:53:54.662Z,27.90
2019-06-10T09:59:56.245Z,27.51
2019-06-10T10:06:09.921Z,27.23
2019-06-10T10:12:05.782Z,27.01
2019-06-10T10:18:14.035Z,28.38
2019-06-10T10:24:18.777Z,27.99
2019-06-10T10:30:33.250Z,29.16
2019-06-10T10:36:37.345Z,30.43
2019-06-10T10:42:51.377Z,30.99
2019-06-10T10:48:53.360Z,30.72
2019-06-10T10:54:57.627Z,29.82
2019-06-10T11:01:04.046Z,29.25
2019-06-10T11:07:08.702Z,29.48
2019-06-10T11:13:13.794Z,30.07
2019-06-10T11:19:18.438Z,30.70
2019-06-10T11:25:23.243Z,31.99
2019-06-10T11:31:27.933Z,32.44
2019-06-10T11:37:32.482Z,31.41
2019-06-10T11:43:42.965Z,32.03
2019-06-10T11:49:53.243Z,32.92
2019-06-10T11:55:58.509Z,33.18
2019-06-10T12:02:05.999Z,32.44
2019-06-10T12:08:13.082Z,31.58
2019-06-10T12:14:26.803Z,30.53
2019-06-10T12:20:28.701Z,29.39
2019-06-10T12:26:33.660Z,28.44
2019-06-10T12:32:42.410Z,28.35
2019-06-10T12:38:47.511Z,30.72
2019-06-10T12:44:54.523Z,32.77
2019-06-10T12:51:01.719Z,33.06
2019-06-10T12:57:06.883Z,32.60
2019-06-10T13:03:13.773Z,33.04
2019-06-10T13:09:24.438Z,34.38
2019-06-10T13:15:29.271Z,34.05
2019-06-10T13:21:33.820Z,34.26
2019-06-10T13:27:42.812Z,35.32
2019-06-10T13:33:52.918Z,35.85
2019-06-10T13:39:57.676Z,36.85
2019-06-10T13:46:03.134Z,37.66
2019-06-10T13:52:12.954Z,36.72
2019-06-10T13:58:14.881Z,34.72
2019-06-10T14:04:24.820Z,34.87
2019-06-10T14:10:25.714Z,32.91
2019-06-10T14:16:34.031Z,31.82
2019-06-10T14:22:38.626Z,31.04
2019-06-10T14:28:44.419Z,30.25
2019-06-10T14:34:49.376Z,29.47
2019-06-10T14:40:53.924Z,29.08
2019-06-10T14:46:58.580Z,30.31
2019-06-10T14:53:03.179Z,31.91
2019-06-10T14:59:07.760Z,32.01
2019-06-10T15:05:15.658Z,31.26
2019-06-10T15:11:20.132Z,30.57
2019-06-10T15:17:25.438Z,30.33
2019-06-10T15:23:32.275Z,29.70
2019-06-10T15:29:36.396Z,29.50
2019-06-10T15:35:42.767Z,28.83
2019-06-10T15:41:47.266Z,27.86
2019-06-10T15:47:53.139Z,27.01
2019-06-10T15:53:57.845Z,26.90
2019-06-10T16:00:16.182Z,26.52
2019-06-10T16:06:13.904Z,26.70
2019-06-10T16:12:19.964Z,26.21
2019-06-10T16:18:29.497Z,26.05
2019-06-10T16:24:34.136Z,25.64
2019-06-10T16:30:38.688Z,25.23
2019-06-10T16:36:43.268Z,25.33
2019-06-10T16:42:47.847Z,25.17
2019-06-10T16:48:52.856Z,24.87
2019-06-10T16:54:57.506Z,24.51
2019-06-10T17:01:03.859Z,24.42
2019-06-10T17:07:08.945Z,24.33
2019-06-10T17:13:15.305Z,24.02
2019-06-10T17:19:21.257Z,23.82
2019-06-10T17:25:26.926Z,23.62
2019-06-10T17:31:35.025Z,23.32
2019-06-10T17:37:38.674Z,23.12
2019-06-10T17:43:43.239Z,23.08
2019-06-10T17:49:47.784Z,22.93
2019-06-10T17:55:52.408Z,22.78
2019-06-10T18:01:56.974Z,22.78
2019-06-10T18:08:02.330Z,22.63
2019-06-10T18:14:07.245Z,22.83
2019-06-10T18:20:13.589Z,22.45
2019-06-10T18:26:18.311Z,22.32
2019-06-10T18:32:22.948Z,22.48
2019-06-10T18:38:27.543Z,22.74
2019-06-10T18:44:33.931Z,22.07
2019-06-10T18:50:39.623Z,21.88
2019-06-10T18:56:46.755Z,21.60
2019-06-10T19:03:08.763Z,21.48
2019-06-10T19:08:57.638Z,21.22
2019-06-10T19:15:02.741Z,21.26
2019-06-10T19:21:08.780Z,21.03
2019-06-10T19:27:13.804Z,20.87
2019-06-10T19:33:18.410Z,20.91
2019-06-10T19:39:23.044Z,20.86
2019-06-10T19:45:27.660Z,20.88
2019-06-10T19:51:32.898Z,20.72
2019-06-10T19:57:39.462Z,20.74
2019-06-10T20:03:46.747Z,20.44
2019-06-10T20:09:52.231Z,20.28
2019-06-10T20:15:56.906Z,20.22
2019-06-10T20:22:01.606Z,20.24
2019-06-10T20:28:06.466Z,20.25
2019-06-10T20:34:13.285Z,19.96
2019-06-10T20:40:18.279Z,19.86
2019-06-10T20:46:23.542Z,19.87
2019-06-10T20:52:28.258Z,19.65
2019-06-10T20:58:33.232Z,19.94
2019-06-10T21:04:39.042Z,20.01
2019-06-10T21:10:46.139Z,20.13
2019-06-10T21:16:54.361Z,20.22
2019-06-10T21:22:58.971Z,20.20
2019-06-10T21:29:03.957Z,20.09
2019-06-10T21:35:08.710Z,20.28
2019-06-10T21:41:13.337Z,20.05
2019-06-10T21:47:17.962Z,19.94
2019-06-10T21:53:22.739Z,19.67
2019-06-10T21:59:27.284Z,19.48
2019-06-10T22:05:33.116Z,19.28
2019-06-10T22:11:37.875Z,19.19
2019-06-10T22:17:42.675Z,18.97
2019-06-10T22:23:47.306Z,19.05
2019-06-10T22:29:54.285Z,18.68
2019-06-10T22:35:58.250Z,18.56
2019-06-10T22:42:03.259Z,18.54
2019-06-10T22:48:07.837Z,18.40
2019-06-10T22:54:12.410Z,18.14
2019-06-10T23:00:17.660Z,18.00
2019-06-10T23:06:23.249Z,17.90
2019-06-10T23:12:29.658Z,17.80
2019-06-10T23:18:34.205Z,17.82
2019-06-10T23:24:43.630Z,17.54
2019-06-10T23:30:48.254Z,17.31
2019-06-10T23:36:54.843Z,17.22
2019-06-10T23:42:59.122Z,17.42
2019-06-10T23:49:07.115Z,17.37
2019-06-10T23:55:13.110Z,17.31
